createdAt,value
2022-11-20T00:01:43.841Z,91.93
2022-11-20T00:04:14.358Z,92.05
2022-11-20T00:06:44.316Z,91.88
2022-11-20T00:09:14.230Z,91.35
2022-11-20T00:11:44.113Z,91.61
2022-11-20T00:14:14.262Z,92.02
2022-11-20T00:17:02.183Z,92.07
2022-11-20T00:19:32.689Z,92.17
2022-11-20T00:22:02.732Z,92.34
2022-11-20T00:24:32.865Z,92.45
2022-11-20T00:27:02.955Z,92.91
2022-11-20T00:29:32.873Z,92.81
2022-11-20T00:32:02.778Z,92.53
2022-11-20T00:34:32.682Z,92.62
2022-11-20T00:37:02.549Z,92.84
2022-11-20T00:39:32.405Z,93.20
2022-11-20T00:42:02.645Z,93.51
2022-11-20T00:44:33.682Z,93.71
2022-11-20T00:47:03.564Z,93.76
2022-11-20T00:49:34.982Z,93.99
2022-11-20T00:52:05.498Z,94.23
2022-11-20T00:54:35.607Z,94.52
2022-11-20T00:57:05.912Z,94.58
2022-11-20T00:59:36.155Z,94.43
2022-11-20T01:02:06.102Z,94.50
2022-11-20T01:04:35.966Z,94.62
2022-11-20T01:07:06.673Z,94.59
2022-11-20T01:09:36.743Z,94.67
2022-11-20T01:12:07.285Z,94.66
2022-11-20T01:14:38.182Z,95.04
2022-11-20T01:17:08.340Z,95.07
2022-11-20T01:19:38.424Z,95.12
2022-11-20T01:22:08.644Z,95.32
2022-11-20T01:24:38.534Z,95.79
2022-11-20T01:27:08.489Z,96.10
2022-11-20T01:29:38.338Z,96.34
2022-11-20T01:32:08.304Z,96.39
2022-11-20T01:34:38.481Z,96.63
2022-11-20T01:37:08.987Z,96.79
2022-11-20T01:39:39.403Z,96.95
2022-11-20T01:42:28.799Z,96.98
2022-11-20T01:45:02.912Z,96.99
2022-11-20T01:47:40.611Z,96.97
2022-11-20T01:50:24.491Z,97.04
2022-11-20T01:53:00.424Z,96.97
2022-11-20T01:55:47.789Z,97.26
2022-11-20T01:58:19.329Z,97.39
2022-11-20T02:00:50.110Z,97.59
2022-11-20T02:03:23.176Z,97.81
2022-11-20T02:06:13.718Z,98.04
2022-11-20T02:08:44.082Z,97.90
2022-11-20T02:11:14.987Z,98.03
2022-11-20T02:13:45.286Z,98.14
2022-11-20T02:16:17.767Z,98.58
2022-11-20T02:18:49.532Z,98.53
2022-11-20T02:21:48.359Z,98.83
2022-11-20T02:24:21.628Z,98.81
2022-11-20T02:27:05.762Z,99.14
2022-11-20T02:30:09.783Z,98.96
2022-11-20T02:32:40.442Z,98.06
2022-11-20T02:35:20.780Z,99.03
2022-11-20T02:37:55.597Z,99.42
2022-11-20T02:40:25.746Z,99.58
2022-11-20T02:42:57.655Z,99.72
2022-11-20T02:45:28.378Z,99.88
2022-11-20T02:47:58.841Z,99.81
2022-11-20T02:50:28.942Z,99.80
2022-11-20T02:52:58.975Z,99.90
2022-11-20T02:55:29.542Z,99.96
2022-11-20T02:57:59.699Z,99.99
2022-11-20T03:00:29.618Z,99.99
2022-11-20T03:02:59.502Z,99.99
2022-11-20T03:05:29.368Z,99.99
2022-11-20T03:07:59.277Z,99.99
2022-11-20T03:10:29.648Z,99.99
2022-11-20T03:12:59.792Z,99.99
2022-11-20T03:15:30.545Z,99.99
2022-11-20T03:18:00.437Z,99.99
2022-11-20T03:20:30.328Z,99.99
2022-11-20T03:23:18.484Z,99.99
2022-11-20T03:25:49.003Z,99.99
2022-11-20T03:28:19.633Z,99.99
2022-11-20T03:30:49.886Z,99.99
2022-11-20T03:33:19.840Z,99.99
2022-11-20T03:35:49.698Z,99.99
2022-11-20T03:38:19.541Z,99.99
2022-11-20T03:40:50.983Z,99.99
2022-11-20T03:43:21.244Z,99.99
2022-11-20T03:45:51.090Z,97.24
2022-11-20T03:48:20.944Z,92.86
2022-11-20T03:50:51.238Z,90.15
2022-11-20T03:53:22.015Z,90.94
2022-11-20T03:55:55.212Z,89.81
2022-11-20T03:58:25.486Z,89.04
2022-11-20T04:00:55.410Z,88.78
2022-11-20T04:03:25.250Z,87.36
2022-11-20T04:05:55.546Z,85.45
2022-11-20T04:08:25.475Z,83.56
2022-11-20T04:10:55.600Z,81.98
2022-11-20T04:13:25.501Z,81.64
2022-11-20T04:16:00.519Z,80.92
2022-11-20T04:18:30.883Z,81.23
2022-11-20T04:21:01.900Z,81.76
2022-11-20T04:23:32.145Z,81.75
2022-11-20T04:26:10.797Z,81.51
2022-11-20T04:28:42.302Z,81.44
2022-11-20T04:31:17.758Z,81.27
2022-11-20T04:33:48.323Z,80.51
2022-11-20T04:36:21.088Z,80.08
2022-11-20T04:39:02.608Z,79.36
2022-11-20T04:41:35.765Z,79.36
2022-11-20T04:44:08.082Z,79.14
2022-11-20T04:46:41.727Z,79.52
2022-11-20T04:49:14.897Z,80.55
2022-11-20T04:51:45.291Z,81.64
2022-11-20T04:54:15.276Z,81.97
2022-11-20T04:56:45.147Z,81.37
2022-11-20T04:59:15.006Z,81.68
2022-11-20T05:01:45.469Z,81.38
2022-11-20T05:04:15.626Z,81.41
2022-11-20T05:06:45.622Z,82.17
2022-11-20T05:09:16.022Z,82.18
2022-11-20T05:11:50.320Z,81.89
2022-11-20T05:14:22.133Z,81.81
2022-11-20T05:16:52.364Z,82.43
2022-11-20T05:19:22.386Z,83.07
2022-11-20T05:21:52.380Z,83.59
2022-11-20T05:24:22.316Z,83.67
2022-11-20T05:26:52.749Z,83.78
2022-11-20T05:29:22.856Z,83.59
2022-11-20T05:31:53.191Z,82.99
2022-11-20T05:34:23.151Z,83.32
2022-11-20T05:36:53.503Z,83.98
2022-11-20T05:39:23.666Z,84.52
2022-11-20T05:42:13.802Z,84.16
2022-11-20T05:44:44.088Z,84.17
2022-11-20T05:47:13.953Z,84.54
2022-11-20T05:49:44.012Z,84.84
2022-11-20T05:52:13.920Z,85.14
2022-11-20T05:54:44.024Z,85.36
2022-11-20T05:57:13.890Z,86.17
2022-11-20T05:59:44.070Z,86.94
2022-11-20T06:02:14.378Z,87.16
2022-11-20T06:04:44.706Z,86.90
2022-11-20T06:07:14.993Z,86.95
2022-11-20T06:09:45.357Z,87.53
2022-11-20T06:12:15.230Z,87.99
2022-11-20T06:14:45.031Z,88.80
2022-11-20T06:17:15.767Z,89.79
2022-11-20T06:19:45.604Z,90.19
2022-11-20T06:22:15.930Z,91.07
2022-11-20T06:24:46.746Z,91.23
2022-11-20T06:27:17.456Z,91.72
2022-11-20T06:29:47.383Z,91.23
2022-11-20T06:32:17.231Z,91.38
2022-11-20T06:34:47.124Z,92.48
2022-11-20T06:37:17.216Z,93.09
2022-11-20T06:39:47.077Z,93.54
2022-11-20T06:42:17.428Z,93.90
2022-11-20T06:44:47.515Z,94.35
2022-11-20T06:47:17.383Z,94.32
2022-11-20T06:49:47.530Z,95.03
2022-11-20T06:52:17.350Z,95.20
2022-11-20T06:54:47.455Z,95.40
2022-11-20T06:57:17.366Z,95.90
2022-11-20T06:59:47.204Z,96.56
2022-11-20T07:02:17.983Z,96.67
2022-11-20T07:04:48.855Z,96.85
2022-11-20T07:07:18.986Z,96.71
2022-11-20T07:09:49.111Z,96.58
2022-11-20T07:12:18.954Z,97.10
2022-11-20T07:14:49.019Z,97.23
2022-11-20T07:17:18.810Z,97.80
2022-11-20T07:19:48.701Z,98.32
2022-11-20T07:22:18.551Z,98.59
2022-11-20T07:24:48.459Z,98.88
2022-11-20T07:27:18.322Z,99.37
2022-11-20T07:29:48.187Z,99.63
2022-11-20T07:32:18.078Z,99.95
2022-11-20T07:34:48.601Z,99.99
2022-11-20T07:37:18.710Z,99.99
2022-11-20T07:39:48.509Z,99.99
2022-11-20T07:42:18.611Z,99.99
2022-11-20T07:44:48.507Z,99.99
2022-11-20T07:47:18.356Z,99.99
2022-11-20T07:49:48.458Z,99.99
2022-11-20T07:52:19.283Z,99.99
2022-11-20T07:54:49.872Z,99.99
2022-11-20T07:57:21.225Z,99.99
2022-11-20T07:59:54.620Z,99.99
2022-11-20T08:02:25.537Z,99.99
2022-11-20T08:04:56.154Z,99.99
2022-11-20T08:07:26.076Z,99.99
2022-11-20T08:09:55.986Z,99.99
2022-11-20T08:12:44.147Z,99.99
2022-11-20T08:15:14.581Z,99.99
2022-11-20T08:18:02.001Z,99.99
2022-11-20T08:20:35.341Z,99.99
2022-11-20T08:23:08.689Z,99.99
2022-11-20T08:25:40.146Z,99.99
2022-11-20T08:28:20.251Z,99.99
2022-11-20T08:30:52.295Z,99.99
2022-11-20T08:33:22.412Z,99.99
2022-11-20T08:35:52.669Z,99.99
2022-11-20T08:38:22.913Z,99.99
2022-11-20T08:41:12.869Z,99.99
2022-11-20T08:43:42.945Z,99.99
2022-11-20T08:46:13.073Z,99.99
2022-11-20T08:48:43.570Z,99.99
2022-11-20T08:51:14.596Z,99.99
2022-11-20T08:53:45.442Z,99.99
2022-11-20T08:56:15.325Z,99.99
2022-11-20T08:59:10.309Z,99.99
2022-11-20T09:01:35.495Z,99.99
2022-11-20T09:04:06.878Z,99.99
2022-11-20T09:06:36.908Z,99.53
2022-11-20T09:09:07.807Z,98.22
2022-11-20T09:11:38.425Z,97.87
2022-11-20T09:14:08.678Z,96.52
2022-11-20T09:16:38.648Z,96.16
2022-11-20T09:19:34.224Z,95.00
2022-11-20T09:21:59.968Z,94.04
2022-11-20T09:24:30.875Z,93.51
2022-11-20T09:27:03.717Z,93.07
2022-11-20T09:29:33.831Z,92.91
2022-11-20T09:32:03.776Z,92.40
2022-11-20T09:34:34.484Z,91.45
2022-11-20T09:37:07.608Z,89.82
2022-11-20T09:39:40.905Z,88.86
2022-11-20T09:42:21.045Z,88.59
2022-11-20T09:45:43.588Z,88.16
2022-11-20T09:48:48.721Z,88.21
2022-11-20T09:51:24.804Z,86.70
2022-11-20T09:54:03.370Z,86.45
2022-11-20T09:56:35.897Z,86.06
2022-11-20T09:59:09.820Z,84.93
2022-11-20T10:01:42.874Z,84.04
2022-11-20T10:04:23.724Z,83.94
2022-11-20T10:07:30.349Z,80.92
2022-11-20T10:09:58.588Z,78.53
2022-11-20T10:13:03.252Z,78.45
2022-11-20T10:15:58.937Z,78.49
2022-11-20T10:18:38.992Z,76.96
2022-11-20T10:21:27.830Z,76.94
2022-11-20T10:24:16.347Z,75.50
2022-11-20T10:27:13.592Z,75.90
2022-11-20T10:29:48.534Z,74.34
2022-11-20T10:32:27.343Z,74.21
2022-11-20T10:35:11.885Z,73.60
2022-11-20T10:37:46.839Z,73.77
2022-11-20T10:40:40.224Z,73.72
2022-11-20T10:43:19.257Z,72.45
2022-11-20T10:46:13.091Z,73.05
2022-11-20T10:48:46.452Z,72.76
2022-11-20T10:51:41.022Z,75.39
2022-11-20T10:54:17.359Z,74.81
2022-11-20T10:56:54.428Z,72.69
2022-11-20T10:59:41.378Z,72.21
2022-11-20T11:02:23.896Z,71.99
2022-11-20T11:04:56.240Z,72.57
2022-11-20T11:07:54.615Z,72.16
2022-11-20T11:10:47.332Z,71.07
2022-11-20T11:13:24.673Z,71.77
2022-11-20T11:15:56.022Z,70.09
2022-11-20T11:18:33.284Z,72.24
2022-11-20T11:21:06.826Z,70.84
2022-11-20T11:23:40.976Z,70.06
2022-11-20T11:26:31.639Z,69.64
2022-11-20T11:29:05.624Z,68.81
2022-11-20T11:31:38.080Z,69.74
2022-11-20T11:34:19.540Z,67.59
2022-11-20T11:37:00.647Z,70.60
2022-11-20T11:39:33.492Z,67.89
2022-11-20T11:42:04.245Z,68.92
2022-11-20T11:44:55.053Z,68.70
2022-11-20T11:47:34.639Z,69.89
2022-11-20T11:50:29.783Z,70.71
2022-11-20T11:53:12.544Z,69.81
2022-11-20T11:56:10.947Z,67.85
2022-11-20T11:58:51.808Z,67.16
2022-11-20T12:01:45.734Z,65.85
2022-11-20T12:04:57.208Z,66.77
2022-11-20T12:07:47.356Z,66.60
2022-11-20T12:10:41.483Z,64.99
2022-11-20T12:13:39.791Z,67.38
2022-11-20T12:16:16.068Z,65.33
2022-11-20T12:18:48.311Z,63.97
2022-11-20T12:21:22.710Z,65.56
2022-11-20T12:24:02.256Z,64.03
2022-11-20T12:26:38.066Z,64.51
2022-11-20T12:29:39.436Z,64.96
2022-11-20T12:32:29.959Z,63.07
2022-11-20T12:35:00.476Z,60.90
2022-11-20T12:37:51.456Z,62.58
2022-11-20T12:40:49.021Z,60.98
2022-11-20T12:43:41.525Z,62.82
2022-11-20T12:46:48.788Z,64.52
2022-11-20T12:49:31.600Z,63.26
2022-11-20T12:52:05.101Z,63.79
2022-11-20T12:55:13.668Z,62.09
2022-11-20T12:58:11.806Z,64.51
2022-11-20T13:00:54.069Z,63.21
2022-11-20T13:03:43.754Z,63.56
2022-11-20T13:06:20.083Z,61.32
2022-11-20T13:08:58.471Z,60.62
2022-11-20T13:11:39.868Z,62.79
2022-11-20T13:14:33.863Z,61.32
2022-11-20T13:17:28.961Z,61.66
2022-11-20T13:20:03.686Z,61.45
2022-11-20T13:22:56.859Z,60.95
2022-11-20T13:25:31.322Z,59.46
2022-11-20T13:28:04.291Z,60.24
2022-11-20T13:30:35.903Z,59.99
2022-11-20T13:33:26.352Z,59.87
2022-11-20T13:36:02.871Z,58.29
2022-11-20T13:38:49.374Z,59.79
2022-11-20T13:41:43.195Z,60.54
2022-11-20T13:44:13.496Z,58.70
2022-11-20T13:46:48.595Z,58.99
2022-11-20T13:49:30.204Z,58.29
2022-11-20T13:52:36.727Z,60.37
2022-11-20T13:55:15.719Z,59.85
2022-11-20T13:57:49.504Z,56.63
2022-11-20T14:00:25.050Z,57.78
2022-11-20T14:03:02.856Z,57.97
2022-11-20T14:05:38.579Z,56.80
2022-11-20T14:08:28.673Z,55.84
2022-11-20T14:11:20.661Z,57.25
2022-11-20T14:14:17.664Z,56.59
2022-11-20T14:16:48.350Z,54.96
2022-11-20T14:19:33.369Z,55.92
2022-11-20T14:22:25.733Z,55.87
2022-11-20T14:25:20.630Z,55.52
2022-11-20T14:27:56.202Z,54.74
2022-11-20T14:30:29.468Z,54.21
2022-11-20T14:33:06.226Z,56.80
2022-11-20T14:35:43.142Z,54.70
2022-11-20T14:38:16.918Z,53.46
2022-11-20T14:40:47.683Z,52.85
2022-11-20T14:43:32.089Z,54.34
2022-11-20T14:46:11.622Z,52.25
2022-11-20T14:48:47.006Z,51.17
2022-11-20T14:51:43.321Z,53.73
2022-11-20T14:54:16.405Z,52.33
2022-11-20T14:57:02.013Z,53.65
2022-11-20T14:59:35.863Z,52.18
2022-11-20T15:02:11.245Z,54.33
2022-11-20T15:05:01.405Z,55.41
2022-11-20T15:07:36.309Z,55.40
2022-11-20T15:10:15.072Z,53.52
2022-11-20T15:12:56.769Z,52.65
2022-11-20T15:15:58.846Z,50.34
2022-11-20T15:18:54.870Z,51.87
2022-11-20T15:21:26.057Z,51.31
2022-11-20T15:23:56.427Z,52.91
2022-11-20T15:26:30.885Z,51.50
2022-11-20T15:29:01.762Z,51.40
2022-11-20T15:31:31.654Z,51.19
2022-11-20T15:34:01.753Z,51.00
2022-11-20T15:36:32.524Z,52.14
2022-11-20T15:39:02.831Z,51.50
2022-11-20T15:41:32.658Z,50.63
2022-11-20T15:44:02.586Z,48.67
2022-11-20T15:46:39.610Z,50.07
2022-11-20T15:49:15.556Z,49.34
2022-11-20T15:51:52.254Z,50.03
2022-11-20T15:54:25.105Z,48.38
2022-11-20T15:56:55.438Z,49.04
2022-11-20T15:59:26.650Z,49.00
2022-11-20T16:01:57.327Z,49.75
2022-11-20T16:04:27.243Z,50.95
2022-11-20T16:06:57.890Z,51.31
2022-11-20T16:09:28.587Z,50.99
2022-11-20T16:12:01.228Z,47.97
2022-11-20T16:14:49.729Z,48.04
2022-11-20T16:17:39.610Z,49.66
2022-11-20T16:20:14.220Z,49.48
2022-11-20T16:22:44.708Z,49.69
2022-11-20T16:25:14.626Z,48.79
2022-11-20T16:27:44.503Z,49.76
2022-11-20T16:30:15.157Z,49.10
2022-11-20T16:32:45.439Z,50.87
2022-11-20T16:35:15.723Z,50.28
2022-11-20T16:37:45.793Z,50.84
2022-11-20T16:40:16.293Z,52.09
2022-11-20T16:42:47.169Z,52.87
2022-11-20T16:45:23.100Z,50.70
2022-11-20T16:47:55.975Z,49.96
2022-11-20T16:50:26.271Z,50.57
2022-11-20T16:52:57.642Z,48.16
2022-11-20T16:55:28.084Z,46.87
2022-11-20T16:57:57.958Z,49.09
2022-11-20T17:00:28.281Z,50.65
2022-11-20T17:02:58.574Z,45.65
2022-11-20T17:05:31.085Z,46.85
2022-11-20T17:08:01.415Z,48.41
2022-11-20T17:10:32.002Z,49.31
2022-11-20T17:13:02.595Z,49.47
2022-11-20T17:15:33.313Z,48.63
2022-11-20T17:18:04.718Z,48.77
2022-11-20T17:20:35.331Z,49.02
2022-11-20T17:23:05.754Z,49.24
2022-11-20T17:25:35.763Z,47.73
2022-11-20T17:28:05.666Z,49.12
2022-11-20T17:30:36.033Z,48.92
2022-11-20T17:33:05.936Z,48.17
2022-11-20T17:35:38.497Z,46.59
2022-11-20T17:38:09.096Z,46.48
2022-11-20T17:40:39.210Z,47.10
2022-11-20T17:43:09.513Z,48.57
2022-11-20T17:45:39.786Z,49.05
2022-11-20T17:48:09.792Z,50.67
2022-11-20T17:50:40.537Z,52.03
2022-11-20T17:53:10.444Z,51.51
2022-11-20T17:55:58.667Z,52.37
2022-11-20T17:58:32.084Z,51.42
2022-11-20T18:01:12.843Z,50.65
2022-11-20T18:03:43.670Z,50.31
2022-11-20T18:06:15.979Z,51.74
2022-11-20T18:08:46.788Z,52.71
2022-11-20T18:11:21.432Z,51.58
2022-11-20T18:14:16.786Z,52.50
2022-11-20T18:16:50.306Z,51.72
2022-11-20T18:19:23.353Z,50.85
2022-11-20T18:21:53.695Z,52.70
2022-11-20T18:24:24.752Z,53.82
2022-11-20T18:26:55.342Z,54.31
2022-11-20T18:29:25.624Z,54.48
2022-11-20T18:31:56.356Z,56.27
2022-11-20T18:34:26.940Z,54.98
2022-11-20T18:36:57.825Z,54.85
2022-11-20T18:39:27.794Z,51.54
2022-11-20T18:42:15.671Z,52.96
2022-11-20T18:44:52.531Z,53.38
2022-11-20T18:47:32.019Z,54.00
2022-11-20T18:50:03.445Z,55.13
2022-11-20T18:52:41.624Z,53.84
2022-11-20T18:55:13.176Z,54.01
2022-11-20T18:57:43.645Z,53.49
2022-11-20T19:00:16.632Z,53.79
2022-11-20T19:02:46.952Z,53.63
2022-11-20T19:05:17.844Z,51.73
2022-11-20T19:07:48.022Z,52.96
2022-11-20T19:10:21.369Z,52.72
2022-11-20T19:12:51.932Z,52.87
2022-11-20T19:15:22.331Z,52.25
2022-11-20T19:17:53.242Z,51.97
2022-11-20T19:20:23.827Z,52.65
2022-11-20T19:22:54.818Z,51.92
2022-11-20T19:25:24.805Z,52.26
2022-11-20T19:27:55.000Z,52.32
2022-11-20T19:30:24.899Z,53.98
2022-11-20T19:32:55.225Z,53.52
2022-11-20T19:35:26.018Z,53.48
2022-11-20T19:38:00.236Z,55.27
2022-11-20T19:40:34.675Z,55.05
2022-11-20T19:43:06.317Z,55.53
2022-11-20T19:45:36.157Z,54.88
2022-11-20T19:48:08.375Z,54.24
2022-11-20T19:50:38.959Z,55.30
2022-11-20T19:53:08.945Z,56.65
2022-11-20T19:55:39.197Z,57.22
2022-11-20T19:58:09.359Z,58.70
2022-11-20T20:00:39.280Z,57.65
2022-11-20T20:03:09.154Z,56.19
2022-11-20T20:05:39.390Z,56.78
2022-11-20T20:08:09.604Z,57.40
2022-11-20T20:10:40.372Z,58.27
2022-11-20T20:13:10.870Z,59.43
2022-11-20T20:15:43.450Z,59.89
2022-11-20T20:18:14.020Z,59.32
2022-11-20T20:20:45.368Z,59.57
2022-11-20T20:23:15.776Z,61.03
2022-11-20T20:25:50.329Z,60.18
2022-11-20T20:28:21.047Z,58.40
2022-11-20T20:30:51.827Z,59.49
2022-11-20T20:33:22.092Z,59.52
2022-11-20T20:35:51.975Z,59.51
2022-11-20T20:38:23.515Z,60.10
2022-11-20T20:40:54.242Z,60.97
2022-11-20T20:43:24.123Z,60.04
2022-11-20T20:45:54.297Z,62.23
2022-11-20T20:48:25.587Z,64.93
2022-11-20T20:51:04.523Z,65.54
2022-11-20T20:53:35.451Z,66.25
2022-11-20T20:56:05.629Z,66.12
2022-11-20T20:58:35.624Z,66.43
2022-11-20T21:01:08.477Z,67.66
2022-11-20T21:03:39.770Z,68.49
2022-11-20T21:06:11.432Z,68.53
2022-11-20T21:08:44.270Z,69.27
2022-11-20T21:11:17.123Z,70.22
2022-11-20T21:13:48.878Z,70.86
2022-11-20T21:16:21.959Z,71.26
2022-11-20T21:18:52.402Z,72.57
2022-11-20T21:21:40.539Z,73.74
2022-11-20T21:24:10.984Z,74.45
2022-11-20T21:26:41.291Z,74.80
2022-11-20T21:29:11.317Z,75.57
2022-11-20T21:31:41.168Z,75.79
2022-11-20T21:34:14.114Z,77.01
2022-11-20T21:36:45.450Z,77.54
2022-11-20T21:39:16.773Z,78.63
2022-11-20T21:41:47.172Z,79.35
2022-11-20T21:44:33.597Z,80.05
2022-11-20T21:47:04.101Z,80.72
2022-11-20T21:49:34.272Z,82.02
2022-11-20T21:52:04.154Z,83.06
2022-11-20T21:54:37.862Z,82.43
2022-11-20T21:57:08.685Z,81.88
2022-11-20T21:59:38.805Z,81.48
2022-11-20T22:02:09.168Z,81.22
2022-11-20T22:04:39.423Z,81.02
2022-11-20T22:07:09.928Z,81.49
2022-11-20T22:09:41.239Z,83.05
2022-11-20T22:12:11.366Z,84.26
2022-11-20T22:14:41.469Z,84.83
2022-11-20T22:17:15.865Z,85.93
2022-11-20T22:19:47.366Z,86.71
2022-11-20T22:22:17.504Z,87.30
2022-11-20T22:24:47.604Z,87.10
2022-11-20T22:27:17.491Z,88.07
2022-11-20T22:29:47.936Z,87.64
2022-11-20T22:32:20.155Z,88.06
2022-11-20T22:34:51.794Z,87.66
2022-11-20T22:37:22.906Z,88.44
2022-11-20T22:39:53.131Z,86.69
2022-11-20T22:42:23.042Z,88.77
2022-11-20T22:44:53.152Z,88.82
2022-11-20T22:47:23.032Z,89.03
2022-11-20T22:49:53.167Z,89.34
2022-11-20T22:52:23.005Z,89.75
2022-11-20T22:54:52.864Z,90.29
2022-11-20T22:57:22.727Z,90.86
2022-11-20T22:59:52.623Z,91.28
2022-11-20T23:02:22.512Z,91.32
2022-11-20T23:04:52.809Z,91.24
2022-11-20T23:07:22.730Z,91.18
2022-11-20T23:09:53.100Z,90.61
2022-11-20T23:12:22.929Z,90.61
2022-11-20T23:14:53.439Z,90.88
2022-11-20T23:17:23.366Z,91.18
2022-11-20T23:19:53.248Z,91.97
2022-11-20T23:22:23.361Z,92.57
2022-11-20T23:24:53.255Z,93.14
2022-11-20T23:27:28.147Z,93.55
2022-11-20T23:30:00.309Z,93.27
2022-11-20T23:32:31.456Z,93.47
2022-11-20T23:35:01.533Z,93.78
2022-11-20T23:37:31.838Z,94.21
2022-11-20T23:40:01.793Z,94.39
2022-11-20T23:42:31.708Z,94.45
2022-11-20T23:45:01.713Z,94.65
2022-11-20T23:47:31.595Z,94.82
2022-11-20T23:50:01.483Z,95.19
2022-11-20T23:52:31.400Z,95.52
2022-11-20T23:55:01.308Z,95.50
2022-11-20T23:57:31.140Z,95.12
